createdAt,value
2023-01-08T00:04:31.941Z,4.80
2023-01-08T00:09:36.565Z,4.80
2023-01-08T00:14:38.414Z,4.80
2023-01-08T00:19:43.223Z,4.80
2023-01-08T00:24:45.300Z,4.70
2023-01-08T00:29:49.870Z,4.80
2023-01-08T00:34:54.766Z,4.80
2023-01-08T00:39:56.722Z,4.90
2023-01-08T00:45:01.268Z,4.90
2023-01-08T00:50:03.696Z,4.90
2023-01-08T00:55:06.132Z,5.00
2023-01-08T01:00:11.212Z,5.00
2023-01-08T01:05:15.505Z,5.00
2023-01-08T01:10:20.312Z,5.10
2023-01-08T01:15:24.159Z,5.10
2023-01-08T01:20:26.028Z,5.30
2023-01-08T01:25:27.871Z,5.30
2023-01-08T01:30:29.836Z,5.40
2023-01-08T01:35:31.665Z,5.40
2023-01-08T01:40:33.498Z,5.40
2023-01-08T01:45:35.418Z,5.40
2023-01-08T01:50:43.429Z,5.30
2023-01-08T01:55:45.849Z,5.30
2023-01-08T02:00:48.540Z,5.20
2023-01-08T02:06:05.180Z,5.30
2023-01-08T02:11:10.757Z,5.20
2023-01-08T02:16:46.889Z,5.30
2023-01-08T02:22:05.545Z,5.20
2023-01-08T02:27:08.479Z,5.20
2023-01-08T02:32:11.054Z,5.20
2023-01-08T02:37:12.875Z,5.20
2023-01-08T02:42:20.568Z,5.20
2023-01-08T02:47:43.771Z,5.20
2023-01-08T02:52:55.156Z,5.10
2023-01-08T02:57:57.861Z,5.10
2023-01-08T03:03:10.982Z,5.10
2023-01-08T03:08:13.131Z,5.10
2023-01-08T03:13:21.749Z,5.00
2023-01-08T03:18:30.195Z,5.00
2023-01-08T03:23:34.815Z,5.00
2023-01-08T03:28:44.515Z,5.00
2023-01-08T03:33:47.004Z,5.10
2023-01-08T03:38:54.487Z,5.10
2023-01-08T03:43:56.895Z,5.10
2023-01-08T03:48:59.409Z,5.10
2023-01-08T03:54:01.411Z,5.10
2023-01-08T03:59:03.249Z,5.10
2023-01-08T04:04:05.987Z,5.10
2023-01-08T04:09:07.838Z,5.10
2023-01-08T04:14:12.225Z,5.20
2023-01-08T04:19:14.871Z,5.20
2023-01-08T04:24:16.699Z,5.20
2023-01-08T04:29:18.518Z,5.20
2023-01-08T04:34:20.497Z,5.20
2023-01-08T04:39:22.383Z,5.20
2023-01-08T04:44:24.253Z,5.30
2023-01-08T04:49:26.077Z,5.30
2023-01-08T04:54:28.012Z,5.30
2023-01-08T04:59:29.928Z,5.30
2023-01-08T05:04:31.805Z,5.30
2023-01-08T05:09:34.065Z,5.20
2023-01-08T05:14:35.916Z,5.20
2023-01-08T05:19:38.463Z,5.20
2023-01-08T05:24:40.463Z,5.20
2023-01-08T05:29:42.281Z,5.20
2023-01-08T05:34:45.544Z,5.20
2023-01-08T05:39:47.507Z,5.20
2023-01-08T05:44:49.335Z,5.20
2023-01-08T05:49:51.165Z,5.20
2023-01-08T05:54:53.198Z,5.30
2023-01-08T05:59:55.025Z,5.30
2023-01-08T06:04:57.051Z,5.30
2023-01-08T06:09:58.873Z,5.30
2023-01-08T06:15:00.714Z,5.30
2023-01-08T06:20:02.530Z,5.30
2023-01-08T06:25:04.765Z,5.30
2023-01-08T06:30:07.416Z,5.30
2023-01-08T06:35:12.670Z,5.30
2023-01-08T06:40:14.546Z,5.40
2023-01-08T06:45:16.592Z,5.40
2023-01-08T06:50:18.517Z,5.40
2023-01-08T06:55:21.746Z,5.40
2023-01-08T07:00:25.794Z,5.40
2023-01-08T07:05:27.755Z,5.50
2023-01-08T07:10:31.328Z,5.50
2023-01-08T07:15:33.237Z,5.50
2023-01-08T07:20:35.134Z,5.50
2023-01-08T07:25:37.028Z,5.60
2023-01-08T07:30:38.952Z,5.60
2023-01-08T07:35:41.018Z,5.60
2023-01-08T07:40:42.853Z,5.60
2023-01-08T07:45:44.761Z,5.60
2023-01-08T07:50:46.694Z,5.60
2023-01-08T07:55:48.661Z,5.70
2023-01-08T08:00:50.474Z,5.60
2023-01-08T08:05:53.032Z,5.70
2023-01-08T08:10:54.929Z,5.70
2023-01-08T08:16:02.147Z,5.70
2023-01-08T08:21:04.260Z,5.70
2023-01-08T08:26:06.211Z,5.70
2023-01-08T08:31:08.142Z,5.70
2023-01-08T08:36:10.129Z,5.80
2023-01-08T08:41:11.982Z,5.70
2023-01-08T08:46:13.840Z,5.80
2023-01-08T08:51:16.043Z,5.70
2023-01-08T08:56:18.013Z,5.70
2023-01-08T09:01:19.949Z,5.70
2023-01-08T09:06:22.089Z,5.70
2023-01-08T09:11:23.918Z,5.70
2023-01-08T09:16:25.911Z,5.70
2023-01-08T09:21:27.783Z,5.70
2023-01-08T09:26:30.388Z,5.70
2023-01-08T09:31:33.969Z,5.70
2023-01-08T09:36:38.490Z,5.70
2023-01-08T09:41:44.588Z,5.80
2023-01-08T09:46:47.082Z,5.80
2023-01-08T09:51:50.140Z,5.80
2023-01-08T09:56:53.736Z,5.80
2023-01-08T10:01:55.773Z,5.80
2023-01-08T10:07:22.382Z,5.80
2023-01-08T10:12:27.906Z,5.80
2023-01-08T10:17:42.709Z,5.80
2023-01-08T10:22:44.816Z,5.80
2023-01-08T10:28:01.510Z,5.80
2023-01-08T10:33:11.261Z,5.90
2023-01-08T10:39:10.632Z,5.90
2023-01-08T10:44:17.127Z,5.90
2023-01-08T10:49:28.765Z,5.90
2023-01-08T10:54:38.925Z,6.00
2023-01-08T10:59:42.882Z,6.00
2023-01-08T11:04:50.163Z,6.00
2023-01-08T11:09:53.684Z,6.10
2023-01-08T11:14:55.679Z,6.10
2023-01-08T11:20:07.811Z,6.10
2023-01-08T11:25:14.408Z,6.10
2023-01-08T11:30:24.067Z,6.10
2023-01-08T11:35:30.092Z,6.10
2023-01-08T11:40:52.074Z,6.10
2023-01-08T11:46:20.530Z,6.10
2023-01-08T11:51:42.637Z,6.10
2023-01-08T11:57:06.546Z,6.10
2023-01-08T12:02:27.612Z,6.10
2023-01-08T12:07:35.541Z,6.20
2023-01-08T12:12:49.244Z,6.20
2023-01-08T12:17:50.987Z,6.30
2023-01-08T12:23:18.945Z,6.30
2023-01-08T12:28:26.790Z,6.30
2023-01-08T12:33:40.427Z,6.40
2023-01-08T12:38:44.928Z,6.40
2023-01-08T12:44:04.150Z,6.30
2023-01-08T12:49:07.295Z,6.30
2023-01-08T12:54:19.827Z,6.30
2023-01-08T13:00:02.443Z,6.30
2023-01-08T13:05:30.723Z,6.20
2023-01-08T13:10:34.733Z,6.20
2023-01-08T13:15:36.716Z,6.20
2023-01-08T13:20:38.638Z,6.10
2023-01-08T13:25:51.785Z,6.00
2023-01-08T13:30:55.793Z,6.00
2023-01-08T13:36:18.522Z,6.00
2023-01-08T13:42:03.870Z,5.90
2023-01-08T13:47:07.472Z,6.00
2023-01-08T13:52:44.364Z,5.90
2023-01-08T13:57:52.412Z,5.90
2023-01-08T14:02:55.248Z,5.90
2023-01-08T14:07:59.076Z,5.90
2023-01-08T14:13:10.005Z,5.90
2023-01-08T14:18:13.796Z,5.90
2023-01-08T14:23:24.029Z,5.80
2023-01-08T14:28:25.864Z,5.90
2023-01-08T14:33:36.043Z,5.90
2023-01-08T14:38:38.778Z,5.80
2023-01-08T14:43:43.951Z,5.90
2023-01-08T14:48:46.516Z,5.80
2023-01-08T14:53:51.157Z,5.90
2023-01-08T14:58:55.459Z,5.80
2023-01-08T15:04:07.789Z,5.80
2023-01-08T15:09:28.607Z,5.80
2023-01-08T15:14:31.055Z,5.80
2023-01-08T15:19:39.144Z,5.70
2023-01-08T15:24:40.950Z,5.70
2023-01-08T15:29:53.320Z,5.60
2023-01-08T15:34:55.141Z,5.60
2023-01-08T15:39:56.989Z,5.60
2023-01-08T15:45:00.872Z,5.60
2023-01-08T15:50:02.719Z,5.60
2023-01-08T15:55:10.066Z,5.50
2023-01-08T16:00:13.576Z,5.50
2023-01-08T16:05:17.691Z,5.50
2023-01-08T16:10:20.411Z,5.40
2023-01-08T16:15:22.841Z,5.40
2023-01-08T16:20:26.491Z,5.40
2023-01-08T16:25:28.520Z,5.40
2023-01-08T16:30:30.643Z,5.30
2023-01-08T16:35:32.448Z,5.30
2023-01-08T16:40:34.251Z,5.30
2023-01-08T16:45:46.780Z,5.30
2023-01-08T16:50:49.547Z,5.30
2023-01-08T16:55:51.487Z,5.30
2023-01-08T17:00:53.348Z,5.30
2023-01-08T17:06:00.161Z,5.20
2023-01-08T17:11:07.148Z,5.20
2023-01-08T17:16:12.005Z,5.20
2023-01-08T17:21:14.593Z,5.20
2023-01-08T17:26:17.895Z,5.20
2023-01-08T17:31:20.037Z,5.20
2023-01-08T17:36:32.163Z,5.20
2023-01-08T17:41:54.355Z,5.20
2023-01-08T17:46:56.177Z,5.20
2023-01-08T17:52:00.066Z,5.10
2023-01-08T17:57:02.927Z,5.10
2023-01-08T18:02:04.825Z,5.10
2023-01-08T18:07:06.964Z,5.10
2023-01-08T18:12:09.178Z,5.10
2023-01-08T18:17:13.263Z,5.10
2023-01-08T18:22:15.920Z,5.00
2023-01-08T18:27:17.697Z,5.00
2023-01-08T18:32:25.523Z,5.00
2023-01-08T18:37:27.388Z,4.90
2023-01-08T18:42:30.796Z,4.80
2023-01-08T18:47:32.589Z,4.80
2023-01-08T18:52:39.735Z,4.80
2023-01-08T18:57:41.773Z,4.70
2023-01-08T19:02:44.165Z,4.60
2023-01-08T19:07:45.994Z,4.50
2023-01-08T19:12:48.169Z,4.40
2023-01-08T19:17:49.981Z,4.40
2023-01-08T19:22:52.695Z,4.40
2023-01-08T19:27:54.536Z,4.30
2023-01-08T19:32:56.321Z,4.30
2023-01-08T19:37:58.221Z,4.30
2023-01-08T19:43:18.334Z,4.20
2023-01-08T19:48:20.329Z,4.10
2023-01-08T19:53:22.126Z,4.00
2023-01-08T19:58:25.281Z,4.00
2023-01-08T20:03:28.236Z,3.90
2023-01-08T20:08:30.028Z,3.80
2023-01-08T20:13:33.963Z,3.70
2023-01-08T20:18:37.469Z,3.60
2023-01-08T20:23:40.062Z,3.50
2023-01-08T20:28:43.552Z,3.50
2023-01-08T20:33:45.794Z,3.50
2023-01-08T20:38:52.428Z,3.50
2023-01-08T20:43:56.151Z,3.60
2023-01-08T20:49:00.154Z,3.60
2023-01-08T20:54:03.678Z,3.50
2023-01-08T20:59:05.542Z,3.50
2023-01-08T21:04:08.730Z,3.40
2023-01-08T21:09:11.036Z,3.40
2023-01-08T21:14:12.961Z,3.30
2023-01-08T21:19:15.320Z,3.20
2023-01-08T21:24:17.182Z,3.10
2023-01-08T21:29:20.853Z,3.00
2023-01-08T21:34:22.728Z,2.80
2023-01-08T21:39:25.685Z,2.80
2023-01-08T21:44:46.139Z,2.70
2023-01-08T21:49:48.000Z,2.60
2023-01-08T21:54:50.066Z,2.60
2023-01-08T21:59:51.846Z,2.70
2023-01-08T22:04:55.773Z,2.70
2023-01-08T22:09:58.065Z,2.80
2023-01-08T22:14:59.992Z,2.70
2023-01-08T22:20:02.095Z,2.70
2023-01-08T22:25:09.197Z,2.70
2023-01-08T22:30:11.449Z,2.60
2023-01-08T22:35:13.437Z,2.60
2023-01-08T22:40:15.579Z,2.70
2023-01-08T22:45:17.408Z,2.80
2023-01-08T22:50:19.392Z,2.80
2023-01-08T22:55:21.809Z,2.80
2023-01-08T23:00:23.643Z,2.80
2023-01-08T23:05:25.561Z,2.80
2023-01-08T23:10:27.857Z,2.80
2023-01-08T23:15:30.270Z,2.80
2023-01-08T23:20:32.140Z,2.80
2023-01-08T23:25:34.034Z,2.80
2023-01-08T23:30:35.871Z,2.70
2023-01-08T23:35:38.399Z,2.50
2023-01-08T23:40:44.828Z,2.50
2023-01-08T23:45:46.634Z,2.50
2023-01-08T23:50:48.431Z,2.60
2023-01-08T23:55:50.468Z,2.50
